createdAt,value
2022-08-17T00:04:23.268Z,1010.1
2022-08-17T00:10:25.071Z,1010.2
2022-08-17T00:15:34.848Z,1010.2
2022-08-17T00:21:36.042Z,1010.2
2022-08-17T00:27:14.220Z,1010.1
2022-08-17T00:33:10.161Z,1010
2022-08-17T00:38:12.145Z,1010.3
2022-08-17T00:43:44.088Z,1010.5
2022-08-17T00:49:12.109Z,1010.5
2022-08-17T00:55:10.778Z,1010.3
2022-08-17T01:00:28.962Z,1010.2
2022-08-17T01:06:01.715Z,1010.4
2022-08-17T01:12:00.865Z,1010.4
2022-08-17T01:17:25.179Z,1010.5
2022-08-17T01:22:53.575Z,1010.7
2022-08-17T01:28:33.294Z,1011.1
2022-08-17T01:34:00.106Z,1011.3
2022-08-17T01:39:48.455Z,1011.3
2022-08-17T01:45:16.337Z,1011.4
2022-08-17T01:50:44.564Z,1011.6
2022-08-17T01:56:40.273Z,1011.6
2022-08-17T02:02:30.194Z,1011.8
2022-08-17T02:08:00.114Z,1011.7
2022-08-17T02:13:33.356Z,1011.9
2022-08-17T02:19:09.150Z,1012.2
2022-08-17T02:24:59.231Z,1012
2022-08-17T02:29:54.978Z,1011.9
2022-08-17T02:35:46.211Z,1011.8
2022-08-17T02:41:08.135Z,1011.6
2022-08-17T02:46:56.490Z,1011.7
2022-08-17T02:52:42.591Z,1011.8
2022-08-17T02:58:04.207Z,1011.8
2022-08-17T03:03:53.880Z,1012.1
2022-08-17T03:09:11.640Z,1012.1
2022-08-17T03:14:50.805Z,1012.1
2022-08-17T03:20:17.346Z,1012.3
2022-08-17T03:26:05.782Z,1012.5
2022-08-17T03:31:43.641Z,1012.7
2022-08-17T03:37:18.934Z,1012.7
2022-08-17T03:42:51.339Z,1012.6
2022-08-17T03:48:34.934Z,1012.4
2022-08-17T03:53:48.069Z,1011.9
2022-08-17T03:59:42.771Z,1011.5
2022-08-17T04:05:18.823Z,1011.4
2022-08-17T04:10:45.410Z,1011.6
2022-08-17T04:16:15.571Z,1011.6
2022-08-17T04:21:43.494Z,1011.7
2022-08-17T04:27:39.577Z,1011.8
2022-08-17T04:33:21.742Z,1011.9
2022-08-17T04:38:33.832Z,1012.1
2022-08-17T04:44:27.198Z,1012.2
2022-08-17T04:50:01.889Z,1012.3
2022-08-17T04:55:29.195Z,1012.4
2022-08-17T05:01:13.354Z,1012.5
2022-08-17T05:06:25.705Z,1012.4
2022-08-17T05:12:02.113Z,1012.4
2022-08-17T05:17:48.352Z,1012.6
2022-08-17T05:23:33.731Z,1012.8
2022-08-17T05:28:47.831Z,1012.8
2022-08-17T05:34:37.612Z,1012.8
2022-08-17T05:40:11.161Z,1012.6
2022-08-17T05:45:59.480Z,1012.6
2022-08-17T05:51:09.353Z,1012.5
2022-08-17T05:57:06.455Z,1012.3
2022-08-17T06:02:25.085Z,1012.2
2022-08-17T06:08:15.538Z,1012.1
2022-08-17T06:13:52.905Z,1011.8
2022-08-17T06:19:26.150Z,1011.9
2022-08-17T06:25:00.555Z,1011.8
2022-08-17T06:30:57.423Z,1012.2
2022-08-17T06:36:17.657Z,1012.2
2022-08-17T06:41:56.243Z,1011.9
2022-08-17T06:47:27.889Z,1011.8
2022-08-17T06:53:04.810Z,1011.7
2022-08-17T06:58:44.418Z,1011.7
2022-08-17T07:04:20.863Z,1011.6
2022-08-17T07:09:37.975Z,1011.4
2022-08-17T07:15:14.949Z,1011.5
2022-08-17T07:21:07.821Z,1011.5
2022-08-17T07:26:41.682Z,1011.5
2022-08-17T07:32:19.596Z,1011.4
2022-08-17T07:37:54.373Z,1011.1
2022-08-17T07:43:15.619Z,1011.2
2022-08-17T07:49:05.044Z,1011
2022-08-17T07:54:40.683Z,1011
2022-08-17T08:00:26.657Z,1011.5
2022-08-17T08:06:01.534Z,1011.9
2022-08-17T08:11:32.035Z,1011.9
2022-08-17T08:17:18.923Z,1012
2022-08-17T08:22:51.891Z,1011.7
2022-08-17T08:28:26.052Z,1011.8
2022-08-17T08:34:44.715Z,1011.4
2022-08-17T08:45:35.571Z,1011.3
2022-08-17T08:50:45.523Z,1011.4
2022-08-17T08:57:11.832Z,1011.3
2022-08-17T09:02:27.748Z,1011.2
2022-08-17T09:08:07.716Z,1011
2022-08-17T09:13:26.759Z,1010.9
2022-08-17T09:19:08.109Z,1011
2022-08-17T09:24:44.298Z,1011
2022-08-17T09:30:37.487Z,1010.9
2022-08-17T09:35:57.286Z,1010.8
2022-08-17T09:41:52.016Z,1010.8
2022-08-17T09:47:27.704Z,1010.7
2022-08-17T09:52:45.087Z,1010.8
2022-08-17T09:58:39.876Z,1010.7
2022-08-17T10:04:20.502Z,1010.7
2022-08-17T10:15:13.435Z,1010.7
2022-08-17T10:21:19.178Z,1010.8
2022-08-17T10:26:40.285Z,1010.6
2022-08-17T10:32:13.033Z,1010.6
2022-08-17T10:37:51.987Z,1010.6
2022-08-17T10:44:28.372Z,1010.4
2022-08-17T10:49:24.138Z,1010.4
2022-08-17T10:54:45.639Z,1010.4
2022-08-17T11:00:47.679Z,1010.4
2022-08-17T11:06:26.653Z,1010.2
2022-08-17T11:11:48.240Z,1009.9
2022-08-17T11:17:40.041Z,1009.9
2022-08-17T11:23:09.297Z,1009.9
2022-08-17T11:28:41.076Z,1010
2022-08-17T11:34:29.883Z,1010
2022-08-17T11:40:16.979Z,1009.8
2022-08-17T11:46:02.576Z,1009.7
2022-08-17T11:51:16.448Z,1009.7
2022-08-17T11:57:14.134Z,1009.7
2022-08-17T12:02:47.726Z,1009.6
2022-08-17T12:08:27.384Z,1009.4
2022-08-17T12:14:17.825Z,1009.3
2022-08-17T12:19:51.737Z,1009.4
2022-08-17T12:25:22.184Z,1009
2022-08-17T12:31:03.037Z,1009.1
2022-08-17T12:36:43.833Z,1009
2022-08-17T12:42:18.648Z,1008.9
2022-08-17T12:48:02.588Z,1008.8
2022-08-17T12:53:43.721Z,1008.7
2022-08-17T12:59:39.490Z,1008.7
2022-08-17T13:05:08.577Z,1008.7
2022-08-17T13:11:00.095Z,1008.7
2022-08-17T13:16:33.941Z,1008.7
2022-08-17T13:21:52.247Z,1008.6
2022-08-17T13:27:44.426Z,1008.4
2022-08-17T13:33:43.520Z,1008.4
2022-08-17T13:39:00.602Z,1008.4
2022-08-17T13:44:27.611Z,1008.3
2022-08-17T13:50:30.829Z,1008.3
2022-08-17T13:55:52.668Z,1008.3
2022-08-17T14:01:30.784Z,1008.1
2022-08-17T14:07:27.486Z,1008.1
2022-08-17T14:13:04.457Z,1008.3
2022-08-17T14:18:30.544Z,1008.8
2022-08-17T14:24:01.169Z,1009.2
2022-08-17T14:29:42.634Z,1009.4
2022-08-17T14:35:22.270Z,1009.1
2022-08-17T14:40:59.307Z,1009.1
2022-08-17T14:46:50.626Z,1009
2022-08-17T14:52:21.534Z,1009
2022-08-17T14:58:01.920Z,1008.8
2022-08-17T15:03:40.065Z,1008.8
2022-08-17T15:09:09.649Z,1008.8
2022-08-17T15:14:57.916Z,1008.9
2022-08-17T15:20:29.645Z,1008.9
2022-08-17T15:26:02.531Z,1008.9
2022-08-17T15:31:40.771Z,1009
2022-08-17T15:37:18.890Z,1008.8
2022-08-17T15:43:04.608Z,1008.8
2022-08-17T15:48:28.011Z,1008.7
2022-08-17T15:54:27.078Z,1008.5
2022-08-17T15:59:55.279Z,1008.6
2022-08-17T16:05:30.131Z,1008.7
2022-08-17T16:11:11.327Z,1008.6
2022-08-17T16:16:39.221Z,1008.7
2022-08-17T16:22:10.911Z,1008.8
2022-08-17T16:27:51.660Z,1009.1
2022-08-17T16:33:28.134Z,1010.9
2022-08-17T16:38:54.829Z,1010.7
2022-08-17T16:44:55.980Z,1010.4
2022-08-17T16:50:34.321Z,1010.2
2022-08-17T16:55:49.021Z,1010
2022-08-17T17:01:25.875Z,1009.8
2022-08-17T17:06:56.627Z,1009.8
2022-08-17T17:13:00.972Z,1009.6
2022-08-17T17:18:12.030Z,1009.9
2022-08-17T17:23:42.977Z,1010.1
2022-08-17T17:29:29.708Z,1010.4
2022-08-17T17:35:16.817Z,1010.5
2022-08-17T17:40:43.979Z,1011.3
2022-08-17T17:46:26.993Z,1011.3
2022-08-17T17:51:54.879Z,1011.5
2022-08-17T17:57:46.065Z,1012.1
2022-08-17T18:03:19.763Z,1012.9
2022-08-17T18:08:41.953Z,1013.3
2022-08-17T18:14:31.713Z,1014.2
2022-08-17T18:19:47.417Z,1014.8
2022-08-17T18:25:44.736Z,1015.6
2022-08-17T18:31:07.363Z,1016.1
2022-08-17T18:36:31.395Z,1016.2
2022-08-17T18:42:13.805Z,1016.1
2022-08-17T18:48:05.222Z,1016.2
2022-08-17T18:53:41.334Z,1016.4
2022-08-17T18:59:08.619Z,1016.4
2022-08-17T19:04:46.360Z,1016.5
2022-08-17T19:10:15.606Z,1016.5
2022-08-17T19:16:07.814Z,1016.6
2022-08-17T19:21:26.598Z,1016.7
2022-08-17T19:26:56.785Z,1016.9
2022-08-17T19:32:26.601Z,1016.8
2022-08-17T19:38:13.107Z,1017
2022-08-17T19:44:00.753Z,1016.9
2022-08-17T19:49:33.122Z,1016.9
2022-08-17T19:54:55.521Z,1017.1
2022-08-17T20:00:38.005Z,1017.2
2022-08-17T20:06:22.997Z,1017.4
2022-08-17T20:12:02.160Z,1017.4
2022-08-17T20:17:15.776Z,1017.5
2022-08-17T20:23:00.178Z,1017.6
2022-08-17T20:28:40.975Z,1017.5
2022-08-17T20:34:04.766Z,1017.5
2022-08-17T20:39:43.910Z,1017.5
2022-08-17T20:45:23.472Z,1017.3
2022-08-17T20:50:59.497Z,1017.2
2022-08-17T20:56:25.755Z,1017.2
2022-08-17T21:01:51.940Z,1017.3
2022-08-17T21:07:33.178Z,1017.2
2022-08-17T21:13:15.317Z,1017.2
2022-08-17T21:18:58.879Z,1017.2
2022-08-17T21:24:35.907Z,1017.3
2022-08-17T21:30:04.000Z,1017.2
2022-08-17T21:35:28.810Z,1017.2
2022-08-17T21:41:14.620Z,1017.1
2022-08-17T21:46:34.289Z,1017.1
2022-08-17T21:52:22.503Z,1017.1
2022-08-17T21:57:52.848Z,1017
2022-08-17T22:03:37.695Z,1017.1
2022-08-17T22:08:58.259Z,1017.1
2022-08-17T22:14:22.796Z,1017.1
2022-08-17T22:20:01.430Z,1017
2022-08-17T22:25:38.271Z,1017
2022-08-17T22:31:17.449Z,1017.1
2022-08-17T22:36:43.782Z,1017.2
2022-08-17T22:42:28.717Z,1017.1
2022-08-17T22:48:06.225Z,1017.3
2022-08-17T22:53:29.573Z,1017.3
2022-08-17T22:59:02.317Z,1017.3
2022-08-17T23:05:02.175Z,1017.3
2022-08-17T23:10:23.610Z,1017.1
2022-08-17T23:16:09.818Z,1017.2
2022-08-17T23:21:25.742Z,1017
2022-08-17T23:27:18.239Z,1016.8
2022-08-17T23:32:54.163Z,1016.7
2022-08-17T23:38:26.766Z,1016.4
2022-08-17T23:44:02.389Z,1016.1
2022-08-17T23:49:41.293Z,1016.1
2022-08-17T23:54:53.746Z,1016
